createdAt,value
2022-11-05T00:05:14.756Z,967.30
2022-11-05T00:15:14.807Z,967.35
2022-11-05T00:25:15.024Z,967.40
2022-11-05T00:35:15.207Z,967.57
2022-11-05T00:45:15.707Z,967.52
2022-11-05T00:55:15.536Z,967.70
2022-11-05T01:05:15.936Z,967.88
2022-11-05T01:15:15.873Z,967.93
2022-11-05T01:25:16.081Z,968.07
2022-11-05T01:35:16.277Z,968.07
2022-11-05T01:45:16.750Z,968.11
2022-11-05T01:55:16.587Z,968.22
2022-11-05T02:05:16.815Z,968.20
2022-11-05T02:15:16.981Z,968.31
2022-11-05T02:25:17.188Z,968.24
2022-11-05T02:35:17.372Z,968.35
2022-11-05T02:45:17.591Z,968.43
2022-11-05T02:55:18.046Z,968.35
2022-11-05T03:05:17.934Z,968.43
2022-11-05T03:15:18.298Z,968.43
2022-11-05T03:25:18.298Z,968.48
2022-11-05T03:35:18.467Z,968.64
2022-11-05T03:45:18.852Z,968.72
2022-11-05T03:55:18.780Z,968.80
2022-11-05T04:05:19.005Z,968.87
2022-11-05T04:15:19.193Z,968.93
2022-11-05T04:25:19.747Z,969.04
2022-11-05T04:35:19.572Z,969.22
2022-11-05T04:45:19.777Z,969.25
2022-11-05T04:55:19.973Z,969.34
2022-11-05T05:05:20.210Z,969.51
2022-11-05T05:15:20.390Z,969.56
2022-11-05T05:25:20.603Z,969.64
2022-11-05T05:35:20.792Z,969.78
2022-11-05T05:45:21.264Z,969.79
2022-11-05T05:55:21.217Z,969.88
2022-11-05T06:05:21.714Z,970.01
2022-11-05T06:15:21.585Z,970.14
2022-11-05T06:25:21.682Z,970.20
2022-11-05T06:35:21.838Z,970.45
2022-11-05T06:45:22.062Z,970.49
2022-11-05T06:55:22.237Z,970.74
2022-11-05T07:05:22.458Z,970.79
2022-11-05T07:15:22.519Z,970.97
2022-11-05T07:25:22.900Z,971.25
2022-11-05T07:35:22.833Z,971.30
2022-11-05T07:45:23.374Z,971.35
2022-11-05T07:55:23.365Z,971.47
2022-11-05T08:05:23.592Z,971.67
2022-11-05T08:15:23.566Z,971.73
2022-11-05T08:25:23.698Z,971.73
2022-11-05T08:35:23.870Z,971.87
2022-11-05T08:45:24.354Z,971.88
2022-11-05T08:55:24.180Z,971.96
2022-11-05T09:05:24.400Z,972.12
2022-11-05T09:15:24.637Z,972.08
2022-11-05T09:25:24.736Z,972.10
2022-11-05T09:35:24.915Z,972.19
2022-11-05T09:45:25.129Z,972.31
2022-11-05T09:55:25.322Z,972.51
2022-11-05T10:05:25.652Z,972.61
2022-11-05T10:15:25.713Z,972.70
2022-11-05T10:25:25.935Z,972.88
2022-11-05T10:35:26.111Z,972.97
2022-11-05T10:45:26.417Z,973.11
2022-11-05T10:55:26.476Z,973.07
2022-11-05T11:05:26.793Z,973.08
2022-11-05T11:15:27.349Z,973.03
2022-11-05T11:25:27.507Z,973.20
2022-11-05T11:35:27.106Z,973.11
2022-11-05T11:45:27.591Z,973.26
2022-11-05T11:55:27.434Z,973.33
2022-11-05T12:05:27.779Z,973.28
2022-11-05T12:15:28.093Z,973.27
2022-11-05T12:25:27.983Z,973.37
2022-11-05T12:35:28.267Z,973.23
2022-11-05T12:45:28.387Z,973.23
2022-11-05T12:55:28.503Z,973.27
2022-11-05T13:05:28.656Z,973.29
2022-11-05T13:15:28.736Z,973.29
2022-11-05T13:25:28.950Z,973.23
2022-11-05T13:35:29.145Z,973.33
2022-11-05T13:45:29.352Z,973.28
2022-11-05T13:55:29.645Z,973.38
2022-11-05T14:05:29.800Z,973.39
2022-11-05T14:15:29.874Z,973.44
2022-11-05T14:25:30.217Z,973.46
2022-11-05T14:35:30.318Z,973.58
2022-11-05T14:45:30.535Z,973.53
2022-11-05T14:55:30.587Z,973.63
2022-11-05T15:05:31.023Z,973.67
2022-11-05T15:15:30.972Z,973.74
2022-11-05T15:25:31.272Z,973.82
2022-11-05T15:35:31.372Z,973.83
2022-11-05T15:45:31.653Z,973.83
2022-11-05T15:55:31.836Z,973.89
2022-11-05T16:05:32.055Z,973.98
2022-11-05T16:15:32.196Z,974.00
2022-11-05T16:25:32.611Z,974.02
2022-11-05T16:35:32.556Z,974.14
2022-11-05T16:45:37.119Z,974.35
2022-11-05T16:55:33.803Z,974.32
2022-11-05T17:05:33.042Z,974.48
2022-11-05T17:15:33.120Z,974.46
2022-11-05T17:25:33.435Z,974.39
2022-11-05T17:35:33.609Z,974.37
2022-11-05T17:45:33.716Z,974.55
2022-11-05T17:55:33.919Z,974.68
2022-11-05T18:05:34.517Z,974.80
2022-11-05T18:15:34.329Z,974.81
2022-11-05T18:25:34.550Z,974.84
2022-11-05T18:35:34.739Z,974.85
2022-11-05T18:45:34.966Z,974.93
2022-11-05T18:55:35.142Z,974.98
2022-11-05T19:05:35.523Z,974.93
2022-11-05T19:15:35.775Z,975.10
2022-11-05T19:25:35.751Z,975.01
2022-11-05T19:35:41.036Z,974.90
2022-11-05T19:45:44.613Z,974.89
2022-11-05T19:55:37.235Z,974.89
2022-11-05T20:05:36.487Z,974.95
2022-11-05T20:15:36.561Z,974.98
2022-11-05T20:25:36.928Z,975.14
2022-11-05T20:35:36.890Z,975.20
2022-11-05T20:45:37.138Z,975.37
2022-11-05T20:55:37.339Z,975.41
2022-11-05T21:05:37.703Z,975.31
2022-11-05T21:15:37.763Z,975.39
2022-11-05T21:25:37.981Z,975.37
2022-11-05T21:35:38.179Z,975.34
2022-11-05T21:45:38.521Z,975.33
2022-11-05T21:55:38.588Z,975.39
2022-11-05T22:05:38.829Z,975.20
2022-11-05T22:15:38.920Z,975.19
2022-11-05T22:25:39.243Z,975.20
2022-11-05T22:35:39.320Z,975.12
2022-11-05T22:45:39.566Z,975.07
2022-11-05T22:55:39.775Z,975.03
2022-11-05T23:05:40.027Z,974.99
2022-11-05T23:15:40.116Z,974.90
2022-11-05T23:25:40.367Z,974.97
2022-11-05T23:35:40.568Z,974.89
2022-11-05T23:45:40.803Z,974.82
2022-11-05T23:55:40.978Z,974.87
